Terminal Aerodrome Forecast
Issued by NWS

Home | Current Version | Previous Version | Text Only | Print | Product List | Glossary On
Versions: 1 2 3 4 5 6 7 8 9 10 11 12 13 14 15 16 17
000
FTUS46 KSEW 051459 AAA
TAFHQM
TAF AMD
KHQM 051459Z 0515/0612 06004KT 6SM BR SCT005 BKN015
      TEMPO 0515/0518 3SM BR BKN005 OVC015
     FM051900 22008KT P6SM SCT020 SCT040 BKN150
     FM060000 19010KT P6SM BKN040 BKN100
     FM060600 16012KT P6SM -RA OVC040
     FM061000 16007KT 4SM -RA BR OVC020=

USA.gov is the U.S. government's official web portal to all federal, state and local government web resources and services.